Bella Vita — ZGAG5 — position and weather

sailwx.info

Track history (hours):
 
Tides and Currents Weather Stations Pressure Air Temp Water Temp Dewpoint Dewpoint Depression Visibility Wind Speed Wind Dir Waves Ship Positions

Bella Vita

Last reported at 2017-Jul-23 17:31 UTC. Time now 2017-Jul-27 04:41 UTC.
Position N 41°08' E 009°32'.

Length 45 m; draft 2.7 m.

Type: Pleasure craft. MMSI: 319016600.

Date/timePositionNaut miles runAvg speedWind from/ knotsBaromVisibWave heightAir tempDewpointWater temp
2017-Jul-23 17:31N 41°08' E 009°32'0 2.6
2017-Jul-23 17:30N 41°08' E 009°32'3 6.0
2017-Jul-23 17:00N 41°06' E 009°35'  
2017-Jul-20 09:29N 41°04' E 009°32'4 8.5
2017-Jul-20 08:59N 41°08' E 009°34'  
2017-Jul-13 20:55N 43°10' E 007°45'512.2
2017-Jul-13 20:30N 43°14' E 007°41'612.3
2017-Jul-13 20:00N 43°19' E 007°37'213.0
2017-Jul-13 19:53N 43°21' E 007°35'512.3
2017-Jul-13 19:30N 43°25' E 007°32'612.6
2017-Jul-13 19:00N 43°30' E 007°27'313.0
2017-Jul-13 18:48N 43°32' E 007°25'412.5
2017-Jul-13 18:30N 43°35' E 007°23'712.5
2017-Jul-13 17:59N 43°41' E 007°17'  
Track history (hours):
 
Tides and Currents Weather Stations Pressure Air Temp Water Temp Dewpoint Dewpoint Depression Visibility Wind Speed Wind Dir Waves Ship Positions

Bella Vita

Last reported at 2017-Jul-23 17:31 UTC. Time now 2017-Jul-27 04:41 UTC.
Position N 41°08' E 009°32'.

Length 45 m; draft 2.7 m.

Type: Pleasure craft. MMSI: 319016600.

Date/timePositionNaut miles runAvg speedWind from/ knotsBaromVisibWave heightAir tempDewpointWater temp
2017-Jul-23 17:31N 41°08' E 009°32'0 2.6
2017-Jul-23 17:30N 41°08' E 009°32'3 6.0
2017-Jul-23 17:00N 41°06' E 009°35'  
2017-Jul-20 09:29N 41°04' E 009°32'4 8.5
2017-Jul-20 08:59N 41°08' E 009°34'  
2017-Jul-13 20:55N 43°10' E 007°45'512.2
2017-Jul-13 20:30N 43°14' E 007°41'612.3
2017-Jul-13 20:00N 43°19' E 007°37'213.0
2017-Jul-13 19:53N 43°21' E 007°35'512.3
2017-Jul-13 19:30N 43°25' E 007°32'612.6
2017-Jul-13 19:00N 43°30' E 007°27'313.0
2017-Jul-13 18:48N 43°32' E 007°25'412.5
2017-Jul-13 18:30N 43°35' E 007°23'712.5
2017-Jul-13 17:59N 43°41' E 007°17'  

Dump ship's entire track history